Time;durP1;ratioP1;P1;durP2;ratioP2;P2;SDS_P1;SDS_P2;PMS_P1;PMS_P2;Temp;Humidity;BMP_temperature;BMP_pressure;BME280_temperature;BME280_humidity;BME280_pressure;Samples;Min_cycle;Max_cycle;Signal;HPM_P1;HPM_P2
2022/08/07 00:01:31;;;;;;;17.35;10.08;;;;;;;;;;1740499;81;21048;-71
2022/08/07 00:03:58;;;;;;;12.65;9.85;;;;;;;;;;1732826;81;21079;-71
2022/08/07 00:06:25;;;;;;;14.07;9.85;;;;;;;;;;1731766;81;21531;-71
2022/08/07 00:08:52;;;;;;;19.25;10.00;;;;;;;;;;1741102;82;21028;-72
2022/08/07 00:11:19;;;;;;;14.25;9.88;;;;;;;;;;1732542;81;21016;-71
2022/08/07 00:13:46;;;;;;;16.48;10.00;;;;;;;;;;1713870;82;21199;-71
2022/08/07 00:16:14;;;;;;;14.75;9.78;;;;;;;;;;1731560;82;21122;-71
2022/08/07 00:18:40;;;;;;;11.15;8.20;;;;;;;;;;1718412;82;21503;-71
2022/08/07 00:21:08;;;;;;;11.68;9.05;;;;;;;;;;1730016;82;21036;-71
2022/08/07 00:23:38;;;;;;;11.40;8.55;;;;;;;;;;1735507;81;21567;-71
2022/08/07 00:26:06;;;;;;;9.05;8.08;;;;;;;;;;1721597;82;21496;-71
2022/08/07 00:28:33;;;;;;;12.37;8.58;;;;;;;;;;1726013;82;21020;-71
2022/08/07 00:31:05;;;;;;;12.35;9.03;;;;;;;;;;1721906;81;21042;-72
2022/08/07 00:33:33;;;;;;;7.95;5.70;;;;;;;;;;1741263;81;21020;-72
2022/08/07 00:36:00;;;;;;;10.55;5.83;;;;;;;;;;1729103;82;21075;-72
2022/08/07 00:38:27;;;;;;;6.15;5.47;;;;;;;;;;1736381;82;21547;-71
2022/08/07 00:40:54;;;;;;;13.83;4.53;;;;;;;;;;1726390;82;21138;-71
2022/08/07 00:43:20;;;;;;;7.65;5.17;;;;;;;;;;1731385;82;21067;-71
2022/08/07 00:45:47;;;;;;;8.60;4.95;;;;;;;;;;1727616;82;21179;-71
2022/08/07 00:48:14;;;;;;;6.70;4.97;;;;;;;;;;1730088;81;21189;-71
2022/08/07 00:50:41;;;;;;;7.40;4.65;;;;;;;;;;1734971;82;21564;-71
2022/08/07 00:53:07;;;;;;;6.45;4.65;;;;;;;;;;1746769;82;21019;-71
2022/08/07 00:55:33;;;;;;;6.50;5.53;;;;;;;;;;1741788;82;21024;-71
2022/08/07 00:58:00;;;;;;;9.78;6.60;;;;;;;;;;1722130;82;21839;-71
2022/08/07 01:00:27;;;;;;;14.80;9.13;;;;;;;;;;1736524;82;21339;-71
2022/08/07 01:02:54;;;;;;;15.35;8.83;;;;;;;;;;1736930;82;21039;-71
2022/08/07 01:05:20;;;;;;;11.53;8.33;;;;;;;;;;1731970;82;21495;-71
2022/08/07 01:07:48;;;;;;;13.15;9.30;;;;;;;;;;1737371;82;21062;-71
2022/08/07 01:10:15;;;;;;;15.13;9.18;;;;;;;;;;1732201;81;21496;-71
2022/08/07 01:12:42;;;;;;;15.25;8.58;;;;;;;;;;1727848;82;21056;-71
2022/08/07 01:15:09;;;;;;;10.38;8.30;;;;;;;;;;1709677;83;21047;-71
2022/08/07 01:17:36;;;;;;;14.53;7.87;;;;;;;;;;1719423;82;21082;-71
2022/08/07 01:20:04;;;;;;;11.25;7.70;;;;;;;;;;1721278;82;21044;-71
2022/08/07 01:22:31;;;;;;;12.28;7.97;;;;;;;;;;1732707;81;21522;-71
2022/08/07 01:24:58;;;;;;;12.73;7.90;;;;;;;;;;1741795;82;21040;-72
2022/08/07 01:27:25;;;;;;;14.13;8.23;;;;;;;;;;1715465;82;21071;-71
2022/08/07 01:29:52;;;;;;;16.05;7.97;;;;;;;;;;1742159;82;21084;-71
2022/08/07 01:32:20;;;;;;;12.82;7.78;;;;;;;;;;1726189;82;21035;-71
2022/08/07 01:34:48;;;;;;;15.40;7.92;;;;;;;;;;1733307;82;21043;-71
2022/08/07 01:37:16;;;;;;;14.25;8.25;;;;;;;;;;1723729;82;21583;-72
2022/08/07 01:39:44;;;;;;;11.48;8.55;;;;;;;;;;1725330;82;21020;-71
2022/08/07 01:42:15;;;;;;;13.20;8.15;;;;;;;;;;1733393;82;21623;-71
2022/08/07 01:44:43;;;;;;;15.20;7.97;;;;;;;;;;1731699;82;21083;-71
2022/08/07 01:47:09;;;;;;;13.83;8.43;;;;;;;;;;1715717;82;21051;-71
2022/08/07 01:49:37;;;;;;;11.65;8.23;;;;;;;;;;1734510;82;21075;-72
2022/08/07 01:52:04;;;;;;;9.08;7.60;;;;;;;;;;1735191;82;21506;-71
2022/08/07 01:54:33;;;;;;;11.43;7.87;;;;;;;;;;1737634;82;21531;-70
2022/08/07 01:57:08;;;;;;;10.72;7.92;;;;;;;;;;1723313;82;21008;-71
2022/08/07 01:59:43;;;;;;;11.90;8.38;;;;;;;;;;1734892;81;21058;-71
2022/08/07 02:02:12;;;;;;;15.68;8.70;;;;;;;;;;1724419;82;21167;-70
2022/08/07 02:04:40;;;;;;;15.40;9.08;;;;;;;;;;1735652;82;21567;-71
2022/08/07 02:07:11;;;;;;;12.13;8.65;;;;;;;;;;1743728;82;21058;-71
2022/08/07 02:09:39;;;;;;;13.28;8.60;;;;;;;;;;1737390;81;21087;-71
2022/08/07 02:12:18;;;;;;;12.30;8.88;;;;;;;;;;1733523;82;21031;-71
2022/08/07 02:14:44;;;;;;;14.30;8.38;;;;;;;;;;1737463;82;21555;-71
2022/08/07 02:17:14;;;;;;;13.60;8.78;;;;;;;;;;1741330;82;21066;-72
2022/08/07 02:19:42;;;;;;;13.50;8.50;;;;;;;;;;1741145;81;21074;-71
2022/08/07 02:22:11;;;;;;;11.50;8.23;;;;;;;;;;1731728;81;21060;-71
2022/08/07 02:24:39;;;;;;;11.10;8.63;;;;;;;;;;1723005;82;21161;-71
2022/08/07 02:27:07;;;;;;;15.78;9.43;;;;;;;;;;1704354;82;21043;-71
2022/08/07 02:29:35;;;;;;;14.65;9.10;;;;;;;;;;1705502;82;21031;-71
2022/08/07 02:32:03;;;;;;;11.93;8.40;;;;;;;;;;1724625;82;21051;-71
2022/08/07 02:34:30;;;;;;;10.98;8.40;;;;;;;;;;1740512;82;21594;-71
2022/08/07 02:36:57;;;;;;;10.78;8.60;;;;;;;;;;1726887;82;21099;-71
2022/08/07 02:39:25;;;;;;;11.03;8.20;;;;;;;;;;1728270;81;21091;-70
2022/08/07 02:41:52;;;;;;;11.55;8.70;;;;;;;;;;1721618;82;21059;-71
2022/08/07 02:44:20;;;;;;;11.83;8.58;;;;;;;;;;1728959;82;21563;-71
2022/08/07 02:46:47;;;;;;;10.80;8.68;;;;;;;;;;1723094;82;21075;-71
2022/08/07 02:49:15;;;;;;;12.85;8.68;;;;;;;;;;1736700;82;21445;-71
2022/08/07 02:51:43;;;;;;;11.55;8.28;;;;;;;;;;1732944;82;21063;-72
2022/08/07 02:54:10;;;;;;;16.65;8.68;;;;;;;;;;1732304;82;21028;-71
2022/08/07 02:56:38;;;;;;;13.55;9.28;;;;;;;;;;1731734;82;21040;-71
2022/08/07 02:59:06;;;;;;;11.43;8.70;;;;;;;;;;1726541;82;21007;-71
2022/08/07 03:01:33;;;;;;;16.35;9.40;;;;;;;;;;1723404;82;21000;-71
2022/08/07 03:04:01;;;;;;;11.20;8.83;;;;;;;;;;1733026;82;21584;-71
2022/08/07 03:06:29;;;;;;;13.75;8.88;;;;;;;;;;1737670;82;21438;-71
2022/08/07 03:08:55;;;;;;;14.18;8.88;;;;;;;;;;1716910;82;21047;-71
2022/08/07 03:11:22;;;;;;;11.93;8.60;;;;;;;;;;1723020;81;21043;-71
2022/08/07 03:13:49;;;;;;;16.05;9.30;;;;;;;;;;1737299;82;21055;-71
2022/08/07 03:16:17;;;;;;;15.10;8.73;;;;;;;;;;1722511;81;21563;-71
2022/08/07 03:18:43;;;;;;;12.70;9.03;;;;;;;;;;1723144;82;21008;-71
2022/08/07 03:21:10;;;;;;;11.57;8.65;;;;;;;;;;1723059;82;21581;-71
2022/08/07 03:23:38;;;;;;;14.05;8.65;;;;;;;;;;1735405;81;21115;-71
2022/08/07 03:26:06;;;;;;;12.18;8.60;;;;;;;;;;1738073;82;22247;-71
2022/08/07 03:28:34;;;;;;;11.97;8.85;;;;;;;;;;1709040;83;21208;-71
2022/08/07 03:31:17;;;;;;;15.45;8.35;;;;;;;;;;1730484;82;21558;-71
2022/08/07 03:33:49;;;;;;;15.32;9.10;;;;;;;;;;1749966;82;21032;-71
2022/08/07 03:36:17;;;;;;;12.33;7.97;;;;;;;;;;1727730;82;21054;-71
2022/08/07 03:38:45;;;;;;;12.47;8.65;;;;;;;;;;1732049;81;21575;-71
2022/08/07 03:41:12;;;;;;;15.10;8.48;;;;;;;;;;1744706;82;21152;-71
2022/08/07 03:43:38;;;;;;;12.45;8.08;;;;;;;;;;1727695;82;21126;-71
2022/08/07 03:46:06;;;;;;;13.55;8.10;;;;;;;;;;1734112;82;21133;-71
2022/08/07 03:48:34;;;;;;;12.47;7.72;;;;;;;;;;1723738;81;21055;-71
2022/08/07 03:51:01;;;;;;;13.10;7.65;;;;;;;;;;1740375;82;21020;-71
2022/08/07 03:53:30;;;;;;;9.38;7.03;;;;;;;;;;1721308;82;21042;-71
2022/08/07 03:55:58;;;;;;;12.93;7.08;;;;;;;;;;1713201;82;21032;-71
2022/08/07 03:58:25;;;;;;;10.58;6.55;;;;;;;;;;1725822;82;21572;-71
2022/08/07 04:00:52;;;;;;;13.60;6.55;;;;;;;;;;1726403;82;21713;-71
2022/08/07 04:03:20;;;;;;;11.85;7.28;;;;;;;;;;1735205;81;21614;-71
2022/08/07 04:05:49;;;;;;;12.28;7.42;;;;;;;;;;1731297;82;21032;-71
2022/08/07 04:08:17;;;;;;;13.43;7.62;;;;;;;;;;1737279;82;21044;-71
2022/08/07 04:10:47;;;;;;;13.90;7.35;;;;;;;;;;1737350;82;21079;-71
2022/08/07 04:13:14;;;;;;;15.32;7.22;;;;;;;;;;1725356;82;21039;-71
2022/08/07 04:15:42;;;;;;;9.35;7.15;;;;;;;;;;1744005;82;21092;-71
2022/08/07 04:18:10;;;;;;;9.08;7.30;;;;;;;;;;1733459;82;21212;-71
2022/08/07 04:20:37;;;;;;;12.73;7.40;;;;;;;;;;1727296;82;21043;-71
2022/08/07 04:23:05;;;;;;;10.93;7.45;;;;;;;;;;1733703;81;21563;-71
2022/08/07 04:25:36;;;;;;;13.58;7.10;;;;;;;;;;1724330;81;21031;-71
2022/08/07 04:28:05;;;;;;;10.00;6.87;;;;;;;;;;1704669;82;21721;-71
2022/08/07 04:30:33;;;;;;;10.20;6.90;;;;;;;;;;1728190;82;21070;-71
2022/08/07 04:33:03;;;;;;;9.00;6.33;;;;;;;;;;1710468;82;21004;-71
2022/08/07 04:35:30;;;;;;;11.20;6.20;;;;;;;;;;1728979;82;21063;-71
2022/08/07 04:37:57;;;;;;;9.68;4.75;;;;;;;;;;1721761;82;21532;-71
2022/08/07 04:40:23;;;;;;;7.05;4.60;;;;;;;;;;1731747;82;21075;-71
2022/08/07 04:42:50;;;;;;;6.37;4.03;;;;;;;;;;1727272;81;21086;-71
2022/08/07 04:45:18;;;;;;;6.12;4.15;;;;;;;;;;1714945;82;21008;-70
2022/08/07 04:47:49;;;;;;;7.37;4.30;;;;;;;;;;1729025;82;21087;-72
2022/08/07 04:50:17;;;;;;;8.60;4.20;;;;;;;;;;1729493;82;21505;-71
2022/08/07 04:52:47;;;;;;;7.45;3.85;;;;;;;;;;1738810;82;21038;-72
2022/08/07 04:55:24;;;;;;;7.40;3.90;;;;;;;;;;1730177;82;21475;-71
2022/08/07 04:57:53;;;;;;;10.15;4.20;;;;;;;;;;1744322;82;21051;-71
2022/08/07 05:00:22;;;;;;;11.50;3.80;;;;;;;;;;1727430;82;21106;-72
2022/08/07 05:02:54;;;;;;;8.63;3.98;;;;;;;;;;1733216;82;21254;-71
2022/08/07 05:05:22;;;;;;;4.75;3.87;;;;;;;;;;1711524;82;21495;-72
2022/08/07 05:07:53;;;;;;;5.60;3.60;;;;;;;;;;1740277;82;21527;-71
2022/08/07 05:10:22;;;;;;;8.43;3.80;;;;;;;;;;1734008;81;21107;-72
2022/08/07 05:12:57;;;;;;;8.75;3.77;;;;;;;;;;1742429;82;21032;-72
2022/08/07 05:15:26;;;;;;;6.05;3.70;;;;;;;;;;1738033;82;21047;-72
2022/08/07 05:17:59;;;;;;;6.75;3.80;;;;;;;;;;1723876;82;21094;-71
2022/08/07 05:20:27;;;;;;;5.80;3.90;;;;;;;;;;1731210;82;21059;-72
2022/08/07 05:22:57;;;;;;;7.30;3.40;;;;;;;;;;1729223;82;21554;-72
2022/08/07 05:25:23;;;;;;;8.78;3.67;;;;;;;;;;1710175;82;21082;-71
2022/08/07 05:27:51;;;;;;;8.18;4.00;;;;;;;;;;1744449;82;21106;-72
2022/08/07 05:30:19;;;;;;;4.37;3.55;;;;;;;;;;1738199;82;21047;-72
2022/08/07 05:32:46;;;;;;;12.45;3.77;;;;;;;;;;1726308;81;21044;-71
2022/08/07 05:35:13;;;;;;;6.55;3.55;;;;;;;;;;1722126;82;21047;-72
2022/08/07 05:37:40;;;;;;;9.88;3.70;;;;;;;;;;1739185;82;21095;-72
2022/08/07 05:40:09;;;;;;;4.20;3.45;;;;;;;;;;1731220;82;21685;-71
2022/08/07 05:42:36;;;;;;;5.72;3.80;;;;;;;;;;1732641;82;21516;-72
2022/08/07 05:45:05;;;;;;;8.48;4.00;;;;;;;;;;1734057;82;21059;-72
2022/08/07 05:47:33;;;;;;;7.03;3.90;;;;;;;;;;1731897;82;21048;-72
2022/08/07 05:50:00;;;;;;;7.03;3.50;;;;;;;;;;1730899;82;21087;-72
2022/08/07 05:52:28;;;;;;;8.75;3.60;;;;;;;;;;1724793;82;21064;-72
2022/08/07 05:54:55;;;;;;;6.83;3.70;;;;;;;;;;1743567;81;21040;-72
2022/08/07 05:57:25;;;;;;;8.83;3.70;;;;;;;;;;1734357;82;21036;-71
2022/08/07 05:59:52;;;;;;;9.45;4.03;;;;;;;;;;1730930;82;21036;-72
2022/08/07 06:02:20;;;;;;;8.23;3.98;;;;;;;;;;1736752;82;21492;-71
2022/08/07 06:04:48;;;;;;;8.15;4.10;;;;;;;;;;1740979;82;21031;-72
2022/08/07 06:07:15;;;;;;;5.75;3.87;;;;;;;;;;1731820;81;21063;-72
2022/08/07 06:09:41;;;;;;;7.20;3.85;;;;;;;;;;1709157;82;21063;-71
2022/08/07 06:12:08;;;;;;;6.87;3.72;;;;;;;;;;1733878;82;21803;-71
2022/08/07 06:14:34;;;;;;;9.25;4.00;;;;;;;;;;1716173;82;21012;-72
2022/08/07 06:17:02;;;;;;;7.75;3.60;;;;;;;;;;1739780;82;21095;-71
2022/08/07 06:19:32;;;;;;;9.45;4.03;;;;;;;;;;1734338;81;21028;-72
2022/08/07 06:21:59;;;;;;;5.25;3.70;;;;;;;;;;1736079;82;21535;-71
2022/08/07 06:24:25;;;;;;;8.03;4.70;;;;;;;;;;1715032;82;21138;-71
2022/08/07 06:26:52;;;;;;;8.83;4.40;;;;;;;;;;1725812;82;21031;-72
2022/08/07 06:29:18;;;;;;;8.38;4.67;;;;;;;;;;1742182;82;21008;-72
2022/08/07 06:31:45;;;;;;;11.70;4.22;;;;;;;;;;1721951;82;21509;-72
2022/08/07 06:34:11;;;;;;;9.25;4.35;;;;;;;;;;1707283;82;21563;-71
2022/08/07 06:36:38;;;;;;;9.60;4.40;;;;;;;;;;1649764;85;21067;-70
2022/08/07 06:39:05;;;;;;;6.40;4.42;;;;;;;;;;1662806;85;21481;-71
2022/08/07 06:41:38;;;;;;;8.10;4.45;;;;;;;;;;1673984;84;21044;-72
2022/08/07 06:44:05;;;;;;;8.78;4.78;;;;;;;;;;1694590;84;21102;-71
2022/08/07 06:46:33;;;;;;;10.08;4.60;;;;;;;;;;1681394;84;21532;-72
2022/08/07 06:49:00;;;;;;;6.80;4.65;;;;;;;;;;1680018;85;21088;-72
2022/08/07 06:51:32;;;;;;;14.98;4.90;;;;;;;;;;1727073;82;21041;-72
2022/08/07 06:54:02;;;;;;;7.92;4.55;;;;;;;;;;1735960;81;21535;-71
2022/08/07 06:56:39;;;;;;;9.75;4.92;;;;;;;;;;1735013;81;21072;-72
2022/08/07 06:59:09;;;;;;;11.12;5.05;;;;;;;;;;1715761;80;21555;-71
2022/08/07 07:01:38;;;;;;;11.35;5.17;;;;;;;;;;1732765;81;21056;-71
2022/08/07 07:04:05;;;;;;;13.85;5.47;;;;;;;;;;1720523;82;21077;-72
2022/08/07 07:06:32;;;;;;;12.03;5.83;;;;;;;;;;1723615;81;21066;-71
2022/08/07 07:09:17;;;;;;;10.08;5.50;;;;;;;;;;1718961;82;21100;-72
2022/08/07 07:11:46;;;;;;;13.00;5.22;;;;;;;;;;1742208;81;21590;-72
2022/08/07 07:14:14;;;;;;;8.90;5.40;;;;;;;;;;1736572;81;21008;-71
2022/08/07 07:16:42;;;;;;;7.47;5.30;;;;;;;;;;1743773;82;21630;-72
2022/08/07 07:19:11;;;;;;;11.70;5.90;;;;;;;;;;1737457;81;21039;-72
2022/08/07 07:21:39;;;;;;;10.70;5.87;;;;;;;;;;1725253;81;21013;-72
2022/08/07 07:24:07;;;;;;;10.15;5.85;;;;;;;;;;1731601;81;21091;-71
2022/08/07 07:26:35;;;;;;;12.68;6.15;;;;;;;;;;1705671;82;21062;-72
2022/08/07 07:29:03;;;;;;;11.43;5.75;;;;;;;;;;1728885;81;21055;-72
2022/08/07 07:31:34;;;;;;;13.93;5.55;;;;;;;;;;1728415;82;21094;-71
2022/08/07 07:34:03;;;;;;;15.55;6.08;;;;;;;;;;1715449;82;21047;-71
2022/08/07 07:36:30;;;;;;;10.45;5.22;;;;;;;;;;1740174;82;21087;-72
2022/08/07 07:38:59;;;;;;;14.73;5.67;;;;;;;;;;1731744;82;21108;-71
2022/08/07 07:41:26;;;;;;;7.53;5.17;;;;;;;;;;1735824;82;21227;-72
2022/08/07 07:43:53;;;;;;;8.40;5.22;;;;;;;;;;1724144;81;21122;-70
2022/08/07 07:46:21;;;;;;;10.10;5.42;;;;;;;;;;1733843;82;21591;-72
2022/08/07 07:48:49;;;;;;;7.72;5.30;;;;;;;;;;1716455;82;21040;-72
2022/08/07 07:51:17;;;;;;;8.70;5.78;;;;;;;;;;1735079;82;21523;-73
2022/08/07 07:53:44;;;;;;;13.90;5.67;;;;;;;;;;1745737;81;21047;-72
2022/08/07 07:56:12;;;;;;;12.10;5.95;;;;;;;;;;1725593;81;21055;-72
2022/08/07 07:58:39;;;;;;;11.88;5.50;;;;;;;;;;1724054;81;21516;-72
2022/08/07 08:01:06;;;;;;;6.33;5.00;;;;;;;;;;1713743;80;21059;-72
2022/08/07 08:03:36;;;;;;;7.37;5.45;;;;;;;;;;1728285;81;20980;-73
2022/08/07 08:06:05;;;;;;;9.20;4.80;;;;;;;;;;1714628;82;21063;-72
2022/08/07 08:08:32;;;;;;;9.10;5.10;;;;;;;;;;1708096;82;21055;-73
2022/08/07 08:11:00;;;;;;;8.53;5.00;;;;;;;;;;1687104;83;21093;-72
2022/08/07 08:13:27;;;;;;;9.93;4.47;;;;;;;;;;1680609;83;21520;-72
2022/08/07 08:16:00;;;;;;;6.53;4.58;;;;;;;;;;1709319;83;21050;-72
2022/08/07 08:18:28;;;;;;;10.78;4.42;;;;;;;;;;1716271;83;21055;-72
2022/08/07 08:20:56;;;;;;;7.58;3.70;;;;;;;;;;1739451;81;21129;-72
2022/08/07 08:28:55;;;;;;;6.17;2.92;;;;;;;;;;1732227;81;21024;-72
2022/08/07 08:31:23;;;;;;;6.85;3.50;;;;;;;;;;1741438;80;21016;-72
2022/08/07 08:33:52;;;;;;;7.17;3.70;;;;;;;;;;1731213;81;21056;-72
2022/08/07 08:36:20;;;;;;;6.58;3.02;;;;;;;;;;1703266;82;21052;-72
2022/08/07 08:38:48;;;;;;;4.08;3.50;;;;;;;;;;1715848;83;21496;-73
2022/08/07 08:41:26;;;;;;;6.10;3.42;;;;;;;;;;1707009;82;21063;-72
2022/08/07 08:43:54;;;;;;;7.62;3.12;;;;;;;;;;1636474;83;21090;-72
2022/08/07 08:46:23;;;;;;;7.50;2.80;;;;;;;;;;1663299;84;21080;-72
2022/08/07 08:49:00;;;;;;;5.60;2.45;;;;;;;;;;1681680;84;21044;-72
2022/08/07 08:51:41;;;;;;;7.08;2.58;;;;;;;;;;1651138;85;21104;-69
2022/08/07 08:54:09;;;;;;;5.30;2.50;;;;;;;;;;1668314;83;21579;-71
2022/08/07 08:56:37;;;;;;;5.95;2.52;;;;;;;;;;1751169;82;21008;-71
2022/08/07 08:59:08;;;;;;;5.92;2.80;;;;;;;;;;1713492;82;21094;-71
2022/08/07 09:01:49;;;;;;;6.17;2.10;;;;;;;;;;1718114;83;21128;-71
2022/08/07 09:04:17;;;;;;;4.50;2.30;;;;;;;;;;1753104;79;21016;-71
2022/08/07 09:06:54;;;;;;;4.50;1.90;;;;;;;;;;1722942;81;21019;-71
2022/08/07 09:09:32;;;;;;;5.55;2.35;;;;;;;;;;1721174;80;21098;-71
2022/08/07 09:12:06;;;;;;;6.05;2.72;;;;;;;;;;1731558;82;21041;-71
2022/08/07 09:14:37;;;;;;;5.10;2.50;;;;;;;;;;1734322;82;21064;-71
2022/08/07 09:17:15;;;;;;;6.78;2.10;;;;;;;;;;1726132;82;21536;-70
2022/08/07 09:19:46;;;;;;;7.33;2.20;;;;;;;;;;1741497;82;21072;-71
2022/08/07 09:22:32;;;;;;;5.25;2.50;;;;;;;;;;1745943;80;21070;-71
2022/08/07 09:25:00;;;;;;;5.72;2.10;;;;;;;;;;1722102;80;21114;-70
2022/08/07 09:27:35;;;;;;;4.47;2.55;;;;;;;;;;1696303;82;21122;-71
2022/08/07 09:30:07;;;;;;;5.75;2.60;;;;;;;;;;1733365;81;21086;-70
2022/08/07 09:32:45;;;;;;;12.95;5.20;;;;;;;;;;1740091;81;21040;-71
2022/08/07 09:35:19;;;;;;;5.28;2.77;;;;;;;;;;1714906;80;21091;-70
2022/08/07 09:38:12;;;;;;;3.10;2.30;;;;;;;;;;1715072;82;21031;-71
2022/08/07 09:40:46;;;;;;;5.10;2.83;;;;;;;;;;1717882;82;21028;-71
2022/08/07 09:43:24;;;;;;;6.30;2.30;;;;;;;;;;1734924;80;21507;-71
2022/08/07 09:45:52;;;;;;;5.45;2.33;;;;;;;;;;1708504;82;21099;-70
2022/08/07 09:48:33;;;;;;;7.12;2.02;;;;;;;;;;1727389;82;21091;-71
2022/08/07 09:51:04;;;;;;;5.87;2.17;;;;;;;;;;1732156;82;21043;-70
2022/08/07 09:53:33;;;;;;;7.40;2.10;;;;;;;;;;1746186;82;21020;-71
2022/08/07 09:56:04;;;;;;;4.53;2.20;;;;;;;;;;1744630;81;21103;-70
2022/08/07 09:58:49;;;;;;;4.65;2.05;;;;;;;;;;1684208;84;21103;-71
2022/08/07 10:01:18;;;;;;;4.03;2.20;;;;;;;;;;1687008;83;21035;-70
2022/08/07 10:03:46;;;;;;;4.67;2.40;;;;;;;;;;1684720;83;21002;-70
2022/08/07 10:06:17;;;;;;;6.65;2.30;;;;;;;;;;1688249;83;21084;-71
2022/08/07 10:08:57;;;;;;;6.47;2.10;;;;;;;;;;1730007;80;21019;-70
2022/08/07 10:11:24;;;;;;;4.95;2.20;;;;;;;;;;1722952;81;21034;-71
2022/08/07 10:14:01;;;;;;;4.55;1.80;;;;;;;;;;1712697;82;21055;-70
2022/08/07 10:16:39;;;;;;;7.60;1.95;;;;;;;;;;1694423;84;21477;-71
2022/08/07 10:19:19;;;;;;;6.53;1.87;;;;;;;;;;1702073;83;21098;-70
2022/08/07 10:21:53;;;;;;;2.90;2.20;;;;;;;;;;1742632;81;21168;-71
2022/08/07 10:24:31;;;;;;;12.18;2.70;;;;;;;;;;1738072;81;21065;-71
2022/08/07 10:27:17;;;;;;;5.62;1.98;;;;;;;;;;1736934;82;21524;-71
2022/08/07 10:29:52;;;;;;;8.63;2.20;;;;;;;;;;1723069;82;21036;-70
2022/08/07 10:32:23;;;;;;;4.80;2.20;;;;;;;;;;1750725;80;21039;-70
2022/08/07 10:34:58;;;;;;;6.60;2.42;;;;;;;;;;1698690;83;21060;-70
2022/08/07 10:37:26;;;;;;;5.08;2.00;;;;;;;;;;1735756;82;21078;-70
2022/08/07 10:39:57;;;;;;;9.13;2.25;;;;;;;;;;1712420;82;21008;-71
2022/08/07 10:42:32;;;;;;;7.08;2.30;;;;;;;;;;1720954;82;21019;-71
2022/08/07 10:45:03;;;;;;;5.70;2.10;;;;;;;;;;1717336;80;21055;-71
2022/08/07 10:47:31;;;;;;;6.22;2.05;;;;;;;;;;1722515;80;21578;-71
2022/08/07 10:50:03;;;;;;;6.40;2.20;;;;;;;;;;1719340;80;21059;-70
2022/08/07 10:52:38;;;;;;;6.78;2.08;;;;;;;;;;1735285;82;21054;-70
2022/08/07 10:55:12;;;;;;;4.62;2.02;;;;;;;;;;1701213;82;21078;-71
2022/08/07 10:57:47;;;;;;;8.03;2.00;;;;;;;;;;1693025;82;21023;-71
2022/08/07 11:00:15;;;;;;;5.33;2.12;;;;;;;;;;1689082;80;21439;-71
2022/08/07 11:03:00;;;;;;;4.95;1.80;;;;;;;;;;1689545;83;21099;-71
2022/08/07 11:05:37;;;;;;;4.85;2.25;;;;;;;;;;1716934;83;21014;-70
2022/08/07 11:08:05;;;;;;;5.47;1.62;;;;;;;;;;1743121;81;21070;-71
2022/08/07 11:10:45;;;;;;;5.40;2.27;;;;;;;;;;1725437;80;21034;-70
2022/08/07 11:13:14;;;;;;;2.55;1.70;;;;;;;;;;1733956;82;21564;-70
2022/08/07 11:15:41;;;;;;;6.40;1.80;;;;;;;;;;1728440;82;21057;-71
2022/08/07 11:18:15;;;;;;;5.87;1.90;;;;;;;;;;1740568;81;21518;-70
2022/08/07 11:20:43;;;;;;;6.95;2.10;;;;;;;;;;1751106;81;21551;-71
2022/08/07 11:23:27;;;;;;;2.42;2.22;;;;;;;;;;1712910;80;21094;-71
2022/08/07 11:25:55;;;;;;;5.62;2.17;;;;;;;;;;1732012;82;21079;-70
2022/08/07 11:28:26;;;;;;;7.20;1.92;;;;;;;;;;1714447;83;21059;-71
2022/08/07 11:30:57;;;;;;;5.85;1.90;;;;;;;;;;1749791;80;21515;-71
2022/08/07 11:33:26;;;;;;;3.30;2.20;;;;;;;;;;1748568;81;21019;-70
2022/08/07 11:36:09;;;;;;;8.93;2.58;;;;;;;;;;1688503;83;21038;-70
2022/08/07 11:38:38;;;;;;;6.70;2.05;;;;;;;;;;1642091;85;21496;-70
2022/08/07 11:41:13;;;;;;;3.30;2.17;;;;;;;;;;1707144;83;21019;-71
2022/08/07 11:43:50;;;;;;;4.12;2.27;;;;;;;;;;1704886;83;21075;-71
2022/08/07 11:46:35;;;;;;;6.15;1.98;;;;;;;;;;1701078;83;21008;-70
2022/08/07 11:49:04;;;;;;;5.15;1.85;;;;;;;;;;1699023;83;21043;-71
2022/08/07 11:51:32;;;;;;;5.00;1.95;;;;;;;;;;1732290;82;21067;-71
2022/08/07 11:54:13;;;;;;;4.60;2.10;;;;;;;;;;1744440;81;21584;-70
2022/08/07 11:56:59;;;;;;;4.05;1.75;;;;;;;;;;1724524;82;21571;-71
2022/08/07 11:59:27;;;;;;;5.97;2.00;;;;;;;;;;1714409;82;21036;-70
2022/08/07 12:02:01;;;;;;;5.17;1.60;;;;;;;;;;1743125;81;21102;-71
2022/08/07 12:04:39;;;;;;;5.67;1.50;;;;;;;;;;1712625;83;21069;-70
2022/08/07 12:07:07;;;;;;;9.23;2.00;;;;;;;;;;1692710;83;21543;-70
2022/08/07 12:09:35;;;;;;;3.27;1.42;;;;;;;;;;1657428;85;21092;-70
2022/08/07 12:12:10;;;;;;;2.45;1.50;;;;;;;;;;1707194;83;21458;-71
2022/08/07 12:14:38;;;;;;;7.40;1.98;;;;;;;;;;1691035;84;21584;-71
2022/08/07 12:17:09;;;;;;;9.58;2.40;;;;;;;;;;1748384;80;21022;-70
2022/08/07 12:19:38;;;;;;;6.30;1.70;;;;;;;;;;1748733;81;21087;-71
2022/08/07 12:22:06;;;;;;;5.25;1.70;;;;;;;;;;1694138;82;21031;-70
2022/08/07 12:27:40;;;;;;;7.87;1.62;;;;;;;;;;1694302;82;21048;-71
2022/08/07 12:30:11;;;;;;;2.50;1.50;;;;;;;;;;1747806;81;21035;-70
2022/08/07 12:32:38;;;;;;;4.80;1.37;;;;;;;;;;1714656;83;21036;-70
2022/08/07 12:35:06;;;;;;;3.17;1.52;;;;;;;;;;1750043;80;21044;-70
2022/08/07 12:37:34;;;;;;;5.87;1.60;;;;;;;;;;1716678;83;21086;-70
2022/08/07 12:40:01;;;;;;;3.80;1.50;;;;;;;;;;1672695;84;21552;-70
2022/08/07 12:42:30;;;;;;;5.37;1.65;;;;;;;;;;1706612;83;21074;-71
2022/08/07 12:44:57;;;;;;;3.10;1.50;;;;;;;;;;1696508;83;20999;-71
2022/08/07 12:47:28;;;;;;;7.00;1.60;;;;;;;;;;1656550;85;21121;-70
2022/08/07 12:49:57;;;;;;;4.25;1.30;;;;;;;;;;1677377;80;21020;-70
2022/08/07 12:52:35;;;;;;;5.20;1.67;;;;;;;;;;1726548;82;21041;-70
2022/08/07 12:55:03;;;;;;;9.68;1.65;;;;;;;;;;1748471;81;21082;-70
2022/08/07 12:57:31;;;;;;;5.67;1.70;;;;;;;;;;1706528;83;21039;-70
2022/08/07 12:59:58;;;;;;;5.97;1.60;;;;;;;;;;1690482;83;21051;-72
2022/08/07 13:02:43;;;;;;;7.90;1.80;;;;;;;;;;1694626;83;21101;-70
2022/08/07 13:05:29;;;;;;;2.37;1.52;;;;;;;;;;1728373;82;21657;-71
2022/08/07 13:08:09;;;;;;;5.75;1.90;;;;;;;;;;1746211;81;21570;-71
2022/08/07 13:10:41;;;;;;;5.12;1.42;;;;;;;;;;1675164;82;21041;-71
2022/08/07 13:13:28;;;;;;;9.23;1.70;;;;;;;;;;1741808;82;20999;-71
2022/08/07 13:16:09;;;;;;;4.00;1.50;;;;;;;;;;1751320;82;21111;-70
2022/08/07 13:18:49;;;;;;;4.95;1.77;;;;;;;;;;1737038;82;21492;-71
2022/08/07 13:21:18;;;;;;;3.87;1.80;;;;;;;;;;1744206;80;21079;-70
2022/08/07 13:23:50;;;;;;;6.12;1.60;;;;;;;;;;1728527;80;21019;-70
2022/08/07 13:26:36;;;;;;;5.47;2.27;;;;;;;;;;1729413;81;21519;-71
2022/08/07 13:29:04;;;;;;;4.20;1.70;;;;;;;;;;1699203;83;21099;-71
2022/08/07 13:31:51;;;;;;;3.15;1.52;;;;;;;;;;1718807;82;21531;-71
2022/08/07 13:34:35;;;;;;;3.45;1.55;;;;;;;;;;1752199;82;21587;-71
2022/08/07 13:37:03;;;;;;;5.47;1.70;;;;;;;;;;1745703;82;21027;-71
2022/08/07 13:39:38;;;;;;;10.32;5.47;;;;;;;;;;1711891;82;20995;-70
2022/08/07 13:42:08;;;;;;;4.67;1.85;;;;;;;;;;1716352;82;21043;-71
2022/08/07 13:44:35;;;;;;;5.65;2.10;;;;;;;;;;1717618;82;21043;-71
2022/08/07 13:47:04;;;;;;;4.03;1.85;;;;;;;;;;1708366;83;21551;-70
2022/08/07 13:49:35;;;;;;;4.28;1.70;;;;;;;;;;1712614;83;21047;-71
2022/08/07 13:52:03;;;;;;;4.65;2.10;;;;;;;;;;1714216;83;21016;-70
2022/08/07 13:54:30;;;;;;;6.17;2.00;;;;;;;;;;1713193;83;21031;-70
2022/08/07 13:57:02;;;;;;;7.78;2.25;;;;;;;;;;1710694;83;21028;-71
2022/08/07 13:59:30;;;;;;;6.78;1.90;;;;;;;;;;1713036;83;21480;-71
2022/08/07 14:02:07;;;;;;;4.95;1.75;;;;;;;;;;1715081;83;21528;-71
2022/08/07 14:04:29;;;;;;;7.10;1.90;;;;;;;;;;1714857;83;21059;-70
2022/08/07 14:06:57;;;;;;;10.93;1.90;;;;;;;;;;1714577;83;21083;-71
2022/08/07 15:02:25;;;;;;;7.67;2.30;;;;;;;34.86;39.49;100613.73;1819720;78;22724;-68
2022/08/07 15:04:52;;;;;;;5.10;2.37;;;;;;;34.81;39.80;100617.06;1787254;79;21026;-69
2022/08/07 15:07:28;;;;;;;4.15;1.87;;;;;;;34.85;39.83;100614.76;1779403;80;21034;-69
2022/08/07 15:09:54;;;;;;;7.58;2.20;;;;;;;34.85;38.56;100620.11;1781773;79;21041;-69
2022/08/07 15:12:27;;;;;;;6.00;2.20;;;;;;;34.98;38.97;100620.44;1790453;79;20995;-69
2022/08/07 15:15:08;;;;;;;3.67;2.45;;;;;;;34.97;38.81;100623.65;1782834;79;21586;-69
2022/08/07 15:17:42;;;;;;;6.05;2.40;;;;;;;35.06;38.73;100618.81;1786154;80;20983;-69
2022/08/07 15:20:13;;;;;;;5.30;2.27;;;;;;;35.00;39.10;100621.87;1790154;79;21014;-67
2022/08/07 15:22:49;;;;;;;5.30;2.37;;;;;;;34.93;39.43;100623.00;1779021;80;20980;-69
2022/08/07 15:25:23;;;;;;;6.87;2.35;;;;;;;34.90;39.69;100636.31;1783373;79;20972;-68
2022/08/07 15:27:55;;;;;;;6.87;2.35;;;;;;;34.95;39.84;100635.62;1781965;79;21501;-68
2022/08/07 15:30:25;;;;;;;4.40;2.55;;;;;;;34.93;40.01;100635.84;1788201;79;20960;-69
2022/08/07 15:32:53;;;;;;;6.12;2.92;;;;;;;34.97;40.18;100637.55;1782491;79;20980;-69
2022/08/07 15:35:24;;;;;;;8.88;2.60;;;;;;;34.93;39.99;100635.84;1794131;79;20959;-68
2022/08/07 15:37:55;;;;;;;7.03;3.10;;;;;;;35.04;40.39;100637.77;1785004;79;21493;-68
2022/08/07 15:40:27;;;;;;;11.48;2.80;;;;;;;35.14;40.55;100641.23;1783588;79;21034;-69
2022/08/07 15:43:00;;;;;;;6.70;2.90;;;;;;;35.13;40.62;100644.13;1778713;80;20963;-69
2022/08/07 15:45:40;;;;;;;8.20;4.55;;;;;;;35.15;40.43;100642.05;1784164;79;21058;-70